createdAt,value
2022-09-22T00:02:19.562Z,13.84
2022-09-22T00:04:51.677Z,13.78
2022-09-22T00:07:21.117Z,13.75
2022-09-22T00:09:50.511Z,13.75
2022-09-22T00:12:19.923Z,13.70
2022-09-22T00:14:49.436Z,13.67
2022-09-22T00:17:19.224Z,13.67
2022-09-22T00:19:51.200Z,13.69
2022-09-22T00:22:20.615Z,13.63
2022-09-22T00:24:50.019Z,13.61
2022-09-22T00:27:19.427Z,13.54
2022-09-22T00:29:48.839Z,13.50
2022-09-22T00:32:18.502Z,13.42
2022-09-22T00:34:47.914Z,13.42
2022-09-22T00:37:19.907Z,13.43
2022-09-22T00:39:49.301Z,13.42
2022-09-22T00:42:19.831Z,13.40
2022-09-22T00:44:49.223Z,13.36
2022-09-22T00:47:24.841Z,13.33
2022-09-22T00:49:56.202Z,13.31
2022-09-22T00:52:30.173Z,13.26
2022-09-22T00:55:01.562Z,13.23
2022-09-22T00:57:32.623Z,13.18
2022-09-22T01:00:02.026Z,13.17
2022-09-22T01:02:31.463Z,13.11
2022-09-22T01:05:00.855Z,13.08
2022-09-22T01:07:33.867Z,13.09
2022-09-22T01:10:03.272Z,13.07
2022-09-22T01:12:32.811Z,13.03
2022-09-22T01:15:13.970Z,12.99
2022-09-22T01:17:49.795Z,12.97
2022-09-22T01:20:36.795Z,12.94
2022-09-22T01:23:42.533Z,12.92
2022-09-22T01:26:37.777Z,12.90
2022-09-22T01:29:17.642Z,12.83
2022-09-22T01:31:52.995Z,12.80
2022-09-22T01:34:25.237Z,12.78
2022-09-22T01:36:58.009Z,12.75
2022-09-22T01:39:29.840Z,12.73
2022-09-22T01:42:01.086Z,12.77
2022-09-22T01:44:31.916Z,12.75
2022-09-22T01:47:07.489Z,12.73
2022-09-22T01:49:37.951Z,12.70
2022-09-22T01:52:09.686Z,12.67
2022-09-22T01:54:41.010Z,12.62
2022-09-22T01:57:13.920Z,12.62
2022-09-22T01:59:43.330Z,12.57
2022-09-22T02:02:18.896Z,12.58
2022-09-22T02:04:50.997Z,12.53
2022-09-22T02:07:24.443Z,12.53
2022-09-22T02:09:55.337Z,12.54
2022-09-22T02:12:24.747Z,12.50
2022-09-22T02:14:54.175Z,12.50
2022-09-22T02:17:26.534Z,12.45
2022-09-22T02:19:56.147Z,12.45
2022-09-22T02:22:25.562Z,12.42
2022-09-22T02:24:54.984Z,12.40
2022-09-22T02:27:27.128Z,12.38
2022-09-22T02:30:00.786Z,12.34
2022-09-22T02:32:32.760Z,12.32
2022-09-22T02:35:02.317Z,12.31
2022-09-22T02:37:34.281Z,12.27
2022-09-22T02:40:07.432Z,12.23
2022-09-22T02:42:39.439Z,12.25
2022-09-22T02:45:11.807Z,12.22
2022-09-22T02:47:45.117Z,12.22
2022-09-22T02:50:15.409Z,12.21
2022-09-22T02:52:44.840Z,12.21
2022-09-22T02:55:15.097Z,12.17
2022-09-22T02:57:44.520Z,12.13
2022-09-22T03:00:15.110Z,12.13
2022-09-22T03:02:47.113Z,12.12
2022-09-22T03:05:16.731Z,12.07
2022-09-22T03:07:46.167Z,12.01
2022-09-22T03:10:15.616Z,12.00
2022-09-22T03:13:08.979Z,12.02
2022-09-22T03:15:34.971Z,11.98
2022-09-22T03:18:07.110Z,11.98
2022-09-22T03:20:36.524Z,11.96
2022-09-22T03:23:05.938Z,11.95
2022-09-22T03:25:35.352Z,11.95
2022-09-22T03:28:05.046Z,11.93
2022-09-22T03:30:35.842Z,11.91
2022-09-22T03:33:07.897Z,11.90
2022-09-22T03:35:37.389Z,11.91
2022-09-22T03:38:06.783Z,11.90
2022-09-22T03:40:36.281Z,11.85
2022-09-22T03:43:05.743Z,11.86
2022-09-22T03:45:35.814Z,11.82
2022-09-22T03:48:07.966Z,11.74
2022-09-22T03:50:37.416Z,11.74
2022-09-22T03:53:06.805Z,11.72
2022-09-22T03:55:37.276Z,11.67
2022-09-22T03:58:06.666Z,11.64
2022-09-22T04:00:36.073Z,11.64
2022-09-22T04:03:08.903Z,11.57
2022-09-22T04:05:38.324Z,11.54
2022-09-22T04:08:07.763Z,11.55
2022-09-22T04:10:37.213Z,11.57
2022-09-22T04:13:06.598Z,11.55
2022-09-22T04:15:36.007Z,11.50
2022-09-22T04:18:08.139Z,11.51
2022-09-22T04:20:40.890Z,11.49
2022-09-22T04:23:10.290Z,11.46
2022-09-22T04:25:39.751Z,11.44
2022-09-22T04:28:09.278Z,11.40
2022-09-22T04:30:38.765Z,11.37
2022-09-22T04:33:11.066Z,11.37
2022-09-22T04:35:40.665Z,11.34
2022-09-22T04:38:10.599Z,11.32
2022-09-22T04:40:40.331Z,11.25
2022-09-22T04:43:09.721Z,11.24
2022-09-22T04:45:39.921Z,11.18
2022-09-22T04:48:12.126Z,11.20
2022-09-22T04:50:45.758Z,11.22
2022-09-22T04:53:17.336Z,11.19
2022-09-22T04:55:46.732Z,11.18
2022-09-22T04:58:16.360Z,11.16
2022-09-22T05:00:45.754Z,11.08
2022-09-22T05:03:22.076Z,11.02
2022-09-22T05:05:51.810Z,10.96
2022-09-22T05:08:21.203Z,10.92
2022-09-22T05:10:50.601Z,10.95
2022-09-22T05:13:20.185Z,10.93
2022-09-22T05:15:49.613Z,10.85
2022-09-22T05:18:21.588Z,10.88
2022-09-22T05:20:50.987Z,10.88
2022-09-22T05:23:20.422Z,10.87
2022-09-22T05:25:49.817Z,10.89
2022-09-22T05:28:19.399Z,10.90
2022-09-22T05:30:48.802Z,10.95
2022-09-22T05:33:20.774Z,11.00
2022-09-22T05:35:50.206Z,11.06
2022-09-22T05:38:19.591Z,11.14
2022-09-22T05:40:49.586Z,11.18
2022-09-22T05:43:19.114Z,11.25
2022-09-22T05:45:48.640Z,11.34
2022-09-22T05:48:20.691Z,11.44
2022-09-22T05:50:50.100Z,11.51
2022-09-22T05:53:19.497Z,11.66
2022-09-22T05:55:48.905Z,11.74
2022-09-22T05:58:18.307Z,11.82
2022-09-22T06:00:47.791Z,11.95
2022-09-22T06:03:17.676Z,12.09
2022-09-22T06:05:49.665Z,12.16
2022-09-22T06:08:19.198Z,12.26
2022-09-22T06:10:49.307Z,12.33
2022-09-22T06:13:18.684Z,12.32
2022-09-22T06:15:48.975Z,12.38
2022-09-22T06:18:23.631Z,12.51
2022-09-22T06:20:57.266Z,12.61
2022-09-22T06:23:26.770Z,12.79
2022-09-22T06:25:59.676Z,12.93
2022-09-22T06:28:29.245Z,13.00
2022-09-22T06:31:01.127Z,13.01
2022-09-22T06:33:30.583Z,13.01
2022-09-22T06:36:02.617Z,13.13
2022-09-22T06:38:33.930Z,13.43
2022-09-22T06:41:06.753Z,13.56
2022-09-22T06:43:39.113Z,13.67
2022-09-22T06:46:13.746Z,13.74
2022-09-22T06:48:43.426Z,13.89
2022-09-22T06:51:15.394Z,13.93
2022-09-22T06:53:48.608Z,14.00
2022-09-22T06:56:21.316Z,13.76
2022-09-22T06:59:08.946Z,13.75
2022-09-22T07:01:39.287Z,13.98
2022-09-22T07:04:08.967Z,13.89
2022-09-22T07:06:41.347Z,14.05
2022-09-22T07:09:12.377Z,14.22
2022-09-22T07:11:41.798Z,14.57
2022-09-22T07:14:12.664Z,14.53
2022-09-22T07:16:44.410Z,14.55
2022-09-22T07:19:14.541Z,14.88
2022-09-22T07:21:48.397Z,14.98
2022-09-22T07:24:17.796Z,14.98
2022-09-22T07:26:47.212Z,15.08
2022-09-22T07:29:17.807Z,15.03
2022-09-22T07:31:47.280Z,15.16
2022-09-22T07:34:18.195Z,15.41
2022-09-22T07:36:50.715Z,15.61
2022-09-22T07:39:20.154Z,15.61
2022-09-22T07:41:49.578Z,15.74
2022-09-22T07:44:31.475Z,15.71
2022-09-22T07:47:01.008Z,15.63
2022-09-22T07:49:30.504Z,15.88
2022-09-22T07:52:02.526Z,15.96
2022-09-22T07:54:34.199Z,15.96
2022-09-22T07:57:06.755Z,15.94
2022-09-22T07:59:36.211Z,16.10
2022-09-22T08:02:05.998Z,16.29
2022-09-22T08:04:35.572Z,16.53
2022-09-22T08:07:07.571Z,16.87
2022-09-22T08:09:36.986Z,17.19
2022-09-22T08:12:06.902Z,17.29
2022-09-22T08:14:36.297Z,17.33
2022-09-22T08:17:12.245Z,17.21
2022-09-22T08:19:41.652Z,17.43
2022-09-22T08:22:15.305Z,17.58
2022-09-22T08:24:45.940Z,17.63
2022-09-22T08:27:15.414Z,18.06
2022-09-22T08:29:45.341Z,17.94
2022-09-22T08:32:17.531Z,18.15
2022-09-22T08:34:46.933Z,18.45
2022-09-22T08:37:18.896Z,18.67
2022-09-22T08:39:48.277Z,18.93
2022-09-22T08:42:20.832Z,18.91
2022-09-22T08:44:54.699Z,19.17
2022-09-22T08:47:38.938Z,19.40
2022-09-22T08:50:35.621Z,19.36
2022-09-22T08:53:10.242Z,19.23
2022-09-22T08:55:46.079Z,19.50
2022-09-22T08:58:24.642Z,19.67
2022-09-22T09:00:59.697Z,19.43
2022-09-22T09:03:31.200Z,19.11
2022-09-22T09:06:04.191Z,19.32
2022-09-22T09:09:09.019Z,19.74
2022-09-22T09:11:51.994Z,19.50
2022-09-22T09:14:30.427Z,19.33
2022-09-22T09:17:01.164Z,19.85
2022-09-22T09:19:34.689Z,19.48
2022-09-22T09:22:06.925Z,19.65
2022-09-22T09:27:33.109Z,19.71
2022-09-22T09:30:04.858Z,19.43
2022-09-22T09:32:39.219Z,19.42
2022-09-22T09:35:10.834Z,18.88
2022-09-22T09:37:40.546Z,19.44
2022-09-22T09:40:18.357Z,19.84
2022-09-22T09:42:48.199Z,19.55
2022-09-22T09:45:17.764Z,19.23
2022-09-22T09:48:12.631Z,18.96
2022-09-22T09:50:42.083Z,19.35
2022-09-22T09:53:17.607Z,20.12
2022-09-22T09:55:50.902Z,19.94
2022-09-22T09:58:32.577Z,19.97
2022-09-22T10:01:02.612Z,20.23
2022-09-22T10:03:32.699Z,20.70
2022-09-22T10:06:03.062Z,20.80
2022-09-22T10:08:36.695Z,21.19
2022-09-22T10:11:10.005Z,20.95
2022-09-22T10:13:40.002Z,20.90
2022-09-22T10:16:36.032Z,20.59
2022-09-22T10:19:07.759Z,20.86
2022-09-22T10:21:37.692Z,21.08
2022-09-22T10:24:09.930Z,20.99
2022-09-22T10:26:41.885Z,21.32
2022-09-22T10:29:18.875Z,21.63
2022-09-22T10:32:03.547Z,21.56
2022-09-22T10:34:34.491Z,21.56
2022-09-22T10:37:04.439Z,21.93
2022-09-22T10:39:39.991Z,22.20
2022-09-22T10:42:18.305Z,22.34
2022-09-22T10:44:49.006Z,22.52
2022-09-22T10:47:29.771Z,22.68
2022-09-22T10:50:08.029Z,22.16
2022-09-22T10:52:41.408Z,21.70
2022-09-22T10:55:21.594Z,21.94
2022-09-22T10:58:03.632Z,21.83
2022-09-22T11:00:38.285Z,21.10
2022-09-22T11:03:22.628Z,20.28
2022-09-22T11:06:09.597Z,20.11
2022-09-22T11:08:56.655Z,20.56
2022-09-22T11:11:42.237Z,20.99
2022-09-22T11:14:20.666Z,21.22
2022-09-22T11:17:15.394Z,21.21
2022-09-22T11:19:58.788Z,21.73
2022-09-22T11:22:37.993Z,21.28
2022-09-22T11:25:16.067Z,21.42
2022-09-22T11:27:51.432Z,21.28
2022-09-22T11:30:24.125Z,22.02
2022-09-22T11:33:21.859Z,22.37
2022-09-22T11:36:10.594Z,22.07
2022-09-22T11:38:55.583Z,22.15
2022-09-22T11:41:32.414Z,22.11
2022-09-22T11:44:37.326Z,21.46
2022-09-22T11:47:21.087Z,20.68
2022-09-22T11:49:59.704Z,20.54
2022-09-22T11:52:33.562Z,20.70
2022-09-22T11:55:18.455Z,21.21
2022-09-22T11:57:49.909Z,20.42
2022-09-22T12:00:20.367Z,20.78
2022-09-22T12:03:02.150Z,20.55
2022-09-22T12:05:33.895Z,20.30
2022-09-22T12:08:05.291Z,20.73
2022-09-22T12:10:36.611Z,21.51
2022-09-22T12:13:06.337Z,21.95
2022-09-22T12:15:38.482Z,22.28
2022-09-22T12:18:12.826Z,22.41
2022-09-22T12:20:48.280Z,21.92
2022-09-22T12:23:25.110Z,21.07
2022-09-22T12:25:55.450Z,21.15
2022-09-22T12:28:26.084Z,21.75
2022-09-22T12:31:04.015Z,21.93
2022-09-22T12:33:36.875Z,21.86
2022-09-22T12:36:06.886Z,21.30
2022-09-22T12:38:44.154Z,20.62
2022-09-22T12:41:17.696Z,20.67
2022-09-22T12:43:47.441Z,20.92
2022-09-22T12:46:23.661Z,20.77
2022-09-22T12:48:55.699Z,20.58
2022-09-22T12:51:33.397Z,20.61
2022-09-22T12:54:30.460Z,20.09
2022-09-22T12:57:00.852Z,20.75
2022-09-22T13:00:05.362Z,21.29
2022-09-22T13:02:35.183Z,21.79
2022-09-22T13:05:34.814Z,21.49
2022-09-22T13:08:06.930Z,21.17
2022-09-22T13:10:55.520Z,21.28
2022-09-22T13:13:40.791Z,21.19
2022-09-22T13:16:36.143Z,21.38
2022-09-22T13:19:06.797Z,21.10
2022-09-22T13:21:37.002Z,20.98
2022-09-22T13:24:09.054Z,21.02
2022-09-22T13:26:39.261Z,21.00
2022-09-22T13:29:13.417Z,21.48
2022-09-22T13:31:44.494Z,22.02
2022-09-22T13:34:21.299Z,21.87
2022-09-22T13:36:50.877Z,21.40
2022-09-22T13:39:23.856Z,21.84
2022-09-22T13:41:54.925Z,21.45
2022-09-22T13:44:27.306Z,21.78
2022-09-22T13:46:56.698Z,22.16
2022-09-22T13:49:31.506Z,22.24
2022-09-22T13:52:02.185Z,22.29
2022-09-22T13:54:35.475Z,22.01
2022-09-22T13:57:05.065Z,22.49
2022-09-22T13:59:39.662Z,22.88
2022-09-22T14:02:10.849Z,22.27
2022-09-22T14:04:40.594Z,21.93
2022-09-22T14:07:12.192Z,21.95
2022-09-22T14:09:44.162Z,22.82
2022-09-22T14:12:13.663Z,23.16
2022-09-22T14:14:43.270Z,22.31
2022-09-22T14:17:16.535Z,21.96
2022-09-22T14:19:47.854Z,21.72
2022-09-22T14:22:19.035Z,21.97
2022-09-22T14:27:35.197Z,21.13
2022-09-22T14:30:04.692Z,21.52
2022-09-22T14:32:36.271Z,21.88
2022-09-22T14:35:06.618Z,22.16
2022-09-22T14:37:39.198Z,21.54
2022-09-22T14:40:15.546Z,21.80
2022-09-22T14:42:58.097Z,21.64
2022-09-22T14:45:29.494Z,21.21
2022-09-22T14:48:21.090Z,21.29
2022-09-22T14:50:50.849Z,21.35
2022-09-22T14:53:21.863Z,21.44
2022-09-22T14:55:51.570Z,21.02
2022-09-22T14:58:25.066Z,21.45
2022-09-22T15:01:08.801Z,21.20
2022-09-22T15:03:38.718Z,21.04
2022-09-22T15:06:09.409Z,21.07
2022-09-22T15:08:38.624Z,21.45
2022-09-22T15:11:08.211Z,21.68
2022-09-22T15:13:45.349Z,21.19
2022-09-22T15:16:39.487Z,20.64
2022-09-22T15:19:11.787Z,20.47
2022-09-22T15:21:46.237Z,20.23
2022-09-22T15:24:15.903Z,20.06
2022-09-22T15:26:46.602Z,19.94
2022-09-22T15:29:18.685Z,20.31
2022-09-22T15:31:48.138Z,20.22
2022-09-22T15:34:17.565Z,20.09
2022-09-22T15:36:50.053Z,20.05
2022-09-22T15:39:22.462Z,19.97
2022-09-22T15:41:52.090Z,19.70
2022-09-22T15:44:24.095Z,20.30
2022-09-22T15:46:54.402Z,20.47
2022-09-22T15:49:26.455Z,20.36
2022-09-22T15:51:57.505Z,19.86
2022-09-22T15:54:29.467Z,19.87
2022-09-22T15:56:59.544Z,19.83
2022-09-22T15:59:35.176Z,19.54
2022-09-22T16:02:04.580Z,19.56
2022-09-22T16:04:34.333Z,19.97
2022-09-22T16:07:05.514Z,19.99
2022-09-22T16:09:34.929Z,19.88
2022-09-22T16:12:06.531Z,19.74
2022-09-22T16:14:39.584Z,19.75
2022-09-22T16:17:09.006Z,19.59
2022-09-22T16:19:38.430Z,19.63
2022-09-22T16:22:08.019Z,19.47
2022-09-22T16:24:37.452Z,19.49
2022-09-22T16:27:07.403Z,19.54
2022-09-22T16:29:40.014Z,19.66
2022-09-22T16:32:11.076Z,19.42
2022-09-22T16:34:40.500Z,19.42
2022-09-22T16:37:10.351Z,19.23
2022-09-22T16:39:39.806Z,19.25
2022-09-22T16:42:09.315Z,19.58
2022-09-22T16:44:41.403Z,19.59
2022-09-22T16:47:10.859Z,19.55
2022-09-22T16:49:41.127Z,19.90
2022-09-22T16:52:12.664Z,20.08
2022-09-22T16:54:42.057Z,20.16
2022-09-22T16:57:11.512Z,20.20
2022-09-22T16:59:44.158Z,20.29
2022-09-22T17:02:13.682Z,20.33
2022-09-22T17:04:44.132Z,20.35
2022-09-22T17:07:14.107Z,20.48
2022-09-22T17:09:43.498Z,20.49
2022-09-22T17:12:12.898Z,20.46
2022-09-22T17:14:48.570Z,20.45
2022-09-22T17:17:17.994Z,20.39
2022-09-22T17:19:48.243Z,20.30
2022-09-22T17:22:19.163Z,20.24
2022-09-22T17:24:48.352Z,20.15
2022-09-22T17:27:18.768Z,20.05
2022-09-22T17:29:50.756Z,19.96
2022-09-22T17:32:20.155Z,19.79
2022-09-22T17:34:49.565Z,19.65
2022-09-22T17:37:21.934Z,19.53
2022-09-22T17:39:51.971Z,19.49
2022-09-22T17:42:21.502Z,19.39
2022-09-22T17:44:53.570Z,19.31
2022-09-22T17:47:37.834Z,19.12
2022-09-22T17:50:20.697Z,19.02
2022-09-22T17:53:02.658Z,18.98
2022-09-22T17:55:32.147Z,18.93
2022-09-22T17:58:01.557Z,18.92
2022-09-22T18:00:33.913Z,18.93
2022-09-22T18:03:03.406Z,18.89
2022-09-22T18:05:33.127Z,18.86
2022-09-22T18:08:02.757Z,18.83
2022-09-22T18:10:34.119Z,18.82
2022-09-22T18:13:04.477Z,18.74
2022-09-22T18:15:36.940Z,18.67
2022-09-22T18:18:06.512Z,18.60
2022-09-22T18:20:35.910Z,18.46
2022-09-22T18:23:05.707Z,18.47
2022-09-22T18:25:35.167Z,18.50
2022-09-22T18:28:05.710Z,18.51
2022-09-22T18:30:40.019Z,18.48
2022-09-22T18:33:10.973Z,18.44
2022-09-22T18:35:44.231Z,18.39
2022-09-22T18:38:15.555Z,18.37
2022-09-22T18:40:45.176Z,18.31
2022-09-22T18:43:14.657Z,18.32
2022-09-22T18:45:46.615Z,18.31
2022-09-22T18:48:18.446Z,18.30
2022-09-22T18:50:50.055Z,18.29
2022-09-22T18:53:22.170Z,18.27
2022-09-22T18:55:52.807Z,18.22
2022-09-22T18:58:22.684Z,18.20
2022-09-22T19:00:56.285Z,18.17
2022-09-22T19:03:25.926Z,18.12
2022-09-22T19:05:55.310Z,18.08
2022-09-22T19:08:26.341Z,18.08
2022-09-22T19:10:55.566Z,17.99
2022-09-22T19:13:26.595Z,17.92
2022-09-22T19:15:58.557Z,17.87
2022-09-22T19:18:28.075Z,17.82
2022-09-22T19:20:58.257Z,17.75
2022-09-22T19:23:28.099Z,17.75
2022-09-22T19:25:57.503Z,17.71
2022-09-22T19:28:27.081Z,17.65
2022-09-22T19:30:59.105Z,17.63
2022-09-22T19:33:28.629Z,17.60
2022-09-22T19:35:58.330Z,17.55
2022-09-22T19:38:27.960Z,17.47
2022-09-22T19:40:59.445Z,17.46
2022-09-22T19:43:29.815Z,17.41
2022-09-22T19:46:02.441Z,17.36
2022-09-22T19:48:31.887Z,17.34
2022-09-22T19:51:03.327Z,17.28
2022-09-22T19:53:32.731Z,17.23
2022-09-22T19:56:02.125Z,17.15
2022-09-22T19:58:31.545Z,17.12
2022-09-22T20:01:03.559Z,17.09
2022-09-22T20:03:32.986Z,17.08
2022-09-22T20:06:02.373Z,17.05
2022-09-22T20:08:31.791Z,17.01
2022-09-22T20:11:22.677Z,16.99
2022-09-22T20:14:03.073Z,16.96
2022-09-22T20:16:35.049Z,16.89
2022-09-22T20:19:04.474Z,16.84
2022-09-22T20:21:39.596Z,16.79
2022-09-22T20:24:09.538Z,16.74
2022-09-22T20:26:39.097Z,16.68
2022-09-22T20:29:08.527Z,16.65
2022-09-22T20:31:40.589Z,16.63
2022-09-22T20:34:10.407Z,16.58
2022-09-22T20:36:42.213Z,16.55
2022-09-22T20:39:13.200Z,16.51
2022-09-22T20:41:43.071Z,16.49
2022-09-22T20:44:14.612Z,16.43
2022-09-22T20:46:49.490Z,16.42
2022-09-22T20:49:19.637Z,16.38
2022-09-22T20:51:49.413Z,16.31
2022-09-22T20:54:18.814Z,16.31
2022-09-22T20:56:50.873Z,16.32
2022-09-22T20:59:20.259Z,16.30
2022-09-22T21:01:52.285Z,16.30
2022-09-22T21:04:21.708Z,16.27
2022-09-22T21:06:51.117Z,16.23
2022-09-22T21:09:32.806Z,16.21
2022-09-22T21:12:02.230Z,16.17
2022-09-22T21:14:33.791Z,16.14
2022-09-22T21:17:06.839Z,16.14
2022-09-22T21:19:36.557Z,16.10
2022-09-22T21:22:06.215Z,16.00
2022-09-22T21:24:35.624Z,16.02
2022-09-22T21:27:05.038Z,15.97
2022-09-22T21:29:34.440Z,15.93
2022-09-22T21:32:06.732Z,15.94
2022-09-22T21:34:36.488Z,15.90
2022-09-22T21:37:05.975Z,15.89
2022-09-22T21:39:35.382Z,15.86
2022-09-22T21:42:05.024Z,15.83
2022-09-22T21:44:34.445Z,15.78
2022-09-22T21:47:06.771Z,15.77
2022-09-22T21:49:36.467Z,15.75
2022-09-22T21:52:06.228Z,15.74
2022-09-22T21:54:35.845Z,15.73
2022-09-22T21:57:05.267Z,15.67
2022-09-22T21:59:34.690Z,15.66
2022-09-22T22:02:06.723Z,15.62
2022-09-22T22:04:36.141Z,15.55
2022-09-22T22:07:05.620Z,15.49
2022-09-22T22:09:35.052Z,15.46
2022-09-22T22:12:04.707Z,15.45
2022-09-22T22:14:34.951Z,15.44
2022-09-22T22:17:07.189Z,15.42
2022-09-22T22:19:36.606Z,15.35
2022-09-22T22:22:06.583Z,15.32
2022-09-22T22:24:41.058Z,15.29
2022-09-22T22:27:11.345Z,15.30
2022-09-22T22:29:41.270Z,15.26
2022-09-22T22:32:13.435Z,15.26
2022-09-22T22:34:42.859Z,15.25
2022-09-22T22:37:12.431Z,15.22
2022-09-22T22:39:41.843Z,15.17
2022-09-22T22:42:11.242Z,15.13
2022-09-22T22:44:40.657Z,15.12
2022-09-22T22:47:13.073Z,15.07
2022-09-22T22:49:43.075Z,15.02
2022-09-22T22:52:12.475Z,14.99
2022-09-22T22:54:41.874Z,14.99
2022-09-22T22:57:12.675Z,14.93
2022-09-22T22:59:42.645Z,14.91
2022-09-22T23:02:14.625Z,14.87
2022-09-22T23:04:44.030Z,14.83
2022-09-22T23:07:13.617Z,14.80
2022-09-22T23:09:43.009Z,14.79
2022-09-22T23:12:14.513Z,14.76
2022-09-22T23:14:43.932Z,14.79
2022-09-22T23:17:15.924Z,14.80
2022-09-22T23:19:45.539Z,14.75
2022-09-22T23:22:14.938Z,14.69
2022-09-22T23:24:44.346Z,14.58
2022-09-22T23:27:13.870Z,14.54
2022-09-22T23:29:43.293Z,14.48
2022-09-22T23:32:12.696Z,14.43
2022-09-22T23:34:44.702Z,14.42
2022-09-22T23:37:14.096Z,14.38
2022-09-22T23:39:43.521Z,14.36
2022-09-22T23:42:12.945Z,14.32
2022-09-22T23:44:42.451Z,14.32
2022-09-22T23:47:15.589Z,14.28
2022-09-22T23:49:48.437Z,14.25
2022-09-22T23:52:17.825Z,14.26
2022-09-22T23:54:47.381Z,14.23
2022-09-22T23:57:16.783Z,14.17
2022-09-22T23:59:46.206Z,14.15
